sensor_id;sensor_type;location;lat;lon;timestamp;pressure;altitude;pressure_sealevel;temperature;humidity
60976;BME280;46849;48.154;17.042;2023-01-29T00:02:12;99649.28;;;-1.06;100.00
60976;BME280;46849;48.154;17.042;2023-01-29T00:04:56;99652.78;;;-1.15;100.00
60976;BME280;46849;48.154;17.042;2023-01-29T00:07:43;99654.53;;;-1.18;100.00
60976;BME280;46849;48.154;17.042;2023-01-29T00:10:28;99655.41;;;-1.21;100.00
60976;BME280;46849;48.154;17.042;2023-01-29T00:13:12;99652.84;;;-1.27;100.00
60976;BME280;46849;48.154;17.042;2023-01-29T00:15:58;99646.63;;;-0.90;100.00
60976;BME280;46849;48.154;17.042;2023-01-29T00:18:43;99652.81;;;-1.16;100.00
60976;BME280;46849;48.154;17.042;2023-01-29T00:21:28;99663.09;;;-1.16;100.00
60976;BME280;46849;48.154;17.042;2023-01-29T00:24:16;99666.56;;;-1.27;100.00
60976;BME280;46849;48.154;17.042;2023-01-29T00:27:00;99664.88;;;-1.28;100.00
60976;BME280;46849;48.154;17.042;2023-01-29T00:29:45;99673.47;;;-1.35;100.00
60976;BME280;46849;48.154;17.042;2023-01-29T00:32:49;99669.91;;;-1.12;100.00
60976;BME280;46849;48.154;17.042;2023-01-29T00:35:34;99670.72;;;-1.04;100.00
60976;BME280;46849;48.154;17.042;2023-01-29T00:38:19;99663.81;;;-0.97;100.00
60976;BME280;46849;48.154;17.042;2023-01-29T00:41:14;99664.59;;;-0.82;100.00
60976;BME280;46849;48.154;17.042;2023-01-29T00:44:18;99660.47;;;-1.10;99.85
60976;BME280;46849;48.154;17.042;2023-01-29T00:47:21;99673.41;;;-1.21;100.00
60976;BME280;46849;48.154;17.042;2023-01-29T00:50:19;99668.13;;;-1.02;100.00
60976;BME280;46849;48.154;17.042;2023-01-29T00:53:04;99670.66;;;-0.94;100.00
60976;BME280;46849;48.154;17.042;2023-01-29T00:55:48;99675.09;;;-1.17;99.85
60976;BME280;46849;48.154;17.042;2023-01-29T00:58:33;99680.19;;;-1.09;100.00
60976;BME280;46849;48.154;17.042;2023-01-29T01:01:19;99674.19;;;-1.06;100.00
60976;BME280;46849;48.154;17.042;2023-01-29T01:04:23;99677.31;;;-0.67;100.00
60976;BME280;46849;48.154;17.042;2023-01-29T01:07:07;99671.28;;;-0.61;100.00
60976;BME280;46849;48.154;17.042;2023-01-29T01:09:52;99671.53;;;-0.95;100.00
60976;BME280;46849;48.154;17.042;2023-01-29T01:12:59;99685.34;;;-1.10;100.00
60976;BME280;46849;48.154;17.042;2023-01-29T01:15:44;99677.66;;;-1.17;100.00
60976;BME280;46849;48.154;17.042;2023-01-29T01:18:30;99677.63;;;-1.12;100.00
60976;BME280;46849;48.154;17.042;2023-01-29T01:21:15;99676.88;;;-1.28;100.00
60976;BME280;46849;48.154;17.042;2023-01-29T01:24:04;99681.13;;;-1.19;100.00
60976;BME280;46849;48.154;17.042;2023-01-29T01:26:52;99688.94;;;-1.41;100.00
60976;BME280;46849;48.154;17.042;2023-01-29T01:29:36;99681.22;;;-1.41;100.00
60976;BME280;46849;48.154;17.042;2023-01-29T01:32:22;99682.94;;;-1.46;100.00
60976;BME280;46849;48.154;17.042;2023-01-29T01:35:08;99683.84;;;-1.52;100.00
60976;BME280;46849;48.154;17.042;2023-01-29T01:37:53;99688.16;;;-1.59;100.00
60976;BME280;46849;48.154;17.042;2023-01-29T01:40:43;99685.53;;;-1.50;100.00
60976;BME280;46849;48.154;17.042;2023-01-29T01:43:48;99689.84;;;-1.59;100.00
60976;BME280;46849;48.154;17.042;2023-01-29T01:46:36;99682.97;;;-1.50;100.00
60976;BME280;46849;48.154;17.042;2023-01-29T01:49:20;99688.13;;;-1.57;99.58
60976;BME280;46849;48.154;17.042;2023-01-29T01:52:07;99689.84;;;-1.56;100.00
60976;BME280;46849;48.154;17.042;2023-01-29T01:54:53;99699.16;;;-1.33;100.00
60976;BME280;46849;48.154;17.042;2023-01-29T01:57:38;99690.66;;;-1.48;100.00
60976;BME280;46849;48.154;17.042;2023-01-29T02:00:24;99699.25;;;-1.52;99.63
60976;BME280;46849;48.154;17.042;2023-01-29T02:03:10;99704.41;;;-1.51;100.00
60976;BME280;46849;48.154;17.042;2023-01-29T02:06:14;99701.78;;;-1.44;100.00
60976;BME280;46849;48.154;17.042;2023-01-29T02:09:22;99710.44;;;-1.67;99.85
60976;BME280;46849;48.154;17.042;2023-01-29T02:12:19;99710.38;;;-1.47;100.00
60976;BME280;46849;48.154;17.042;2023-01-29T02:15:05;99717.13;;;-1.27;100.00
60976;BME280;46849;48.154;17.042;2023-01-29T02:17:51;99707.88;;;-1.64;100.00
60976;BME280;46849;48.154;17.042;2023-01-29T02:20:37;99707.81;;;-1.52;100.00
60976;BME280;46849;48.154;17.042;2023-01-29T02:29:33;99712.25;;;-1.98;100.00
60976;BME280;46849;48.154;17.042;2023-01-29T02:32:36;99706.22;;;-1.93;100.00
60976;BME280;46849;48.154;17.042;2023-01-29T02:38:49;99713.09;;;-2.00;100.00
60976;BME280;46849;48.154;17.042;2023-01-29T02:41:51;99713.94;;;-1.93;100.00
60976;BME280;46849;48.154;17.042;2023-01-29T02:44:55;99713.00;;;-1.67;100.00
60976;BME280;46849;48.154;17.042;2023-01-29T02:47:57;99712.19;;;-1.82;100.00
60976;BME280;46849;48.154;17.042;2023-01-29T02:50:57;99707.94;;;-1.81;100.00
60976;BME280;46849;48.154;17.042;2023-01-29T02:53:58;99713.88;;;-1.67;100.00
60976;BME280;46849;48.154;17.042;2023-01-29T02:59:39;99726.78;;;-1.89;99.92
60976;BME280;46849;48.154;17.042;2023-01-29T03:02:41;99726.78;;;-1.90;100.00
60976;BME280;46849;48.154;17.042;2023-01-29T03:05:30;99722.53;;;-2.23;100.00
60976;BME280;46849;48.154;17.042;2023-01-29T03:08:20;99728.50;;;-2.03;100.00
60976;BME280;46849;48.154;17.042;2023-01-29T03:11:09;99724.22;;;-2.17;100.00
60976;BME280;46849;48.154;17.042;2023-01-29T03:14:12;99737.94;;;-2.12;100.00
60976;BME280;46849;48.154;17.042;2023-01-29T03:17:05;99731.94;;;-1.95;100.00
60976;BME280;46849;48.154;17.042;2023-01-29T03:19:53;99727.59;;;-1.74;100.00
60976;BME280;46849;48.154;17.042;2023-01-29T03:22:43;99724.22;;;-1.96;100.00
60976;BME280;46849;48.154;17.042;2023-01-29T03:25:30;99722.50;;;-2.05;100.00
60976;BME280;46849;48.154;17.042;2023-01-29T03:28:38;99725.94;;;-2.08;100.00
60976;BME280;46849;48.154;17.042;2023-01-29T03:31:42;99736.19;;;-1.91;100.00
60976;BME280;46849;48.154;17.042;2023-01-29T03:34:55;99738.81;;;-2.16;100.00
60976;BME280;46849;48.154;17.042;2023-01-29T03:37:43;99738.78;;;-2.28;100.00
60976;BME280;46849;48.154;17.042;2023-01-29T03:40:39;99731.09;;;-2.08;100.00
60976;BME280;46849;48.154;17.042;2023-01-29T03:49:43;99733.66;;;-2.44;100.00
60976;BME280;46849;48.154;17.042;2023-01-29T03:52:34;99729.41;;;-2.43;100.00
60976;BME280;46849;48.154;17.042;2023-01-29T04:01:54;99714.84;;;-2.43;100.00
60976;BME280;46849;48.154;17.042;2023-01-29T04:04:44;99716.56;;;-2.36;100.00
60976;BME280;46849;48.154;17.042;2023-01-29T04:07:30;99715.69;;;-2.19;100.00
60976;BME280;46849;48.154;17.042;2023-01-29T04:10:24;99719.13;;;-2.43;99.62
60976;BME280;46849;48.154;17.042;2023-01-29T04:13:11;99717.41;;;-2.21;100.00
60976;BME280;46849;48.154;17.042;2023-01-29T04:16:01;99708.84;;;-2.54;99.29
60976;BME280;46849;48.154;17.042;2023-01-29T04:19:07;99712.25;;;-2.40;99.74
60976;BME280;46849;48.154;17.042;2023-01-29T04:22:02;99699.44;;;-2.49;99.90
60976;BME280;46849;48.154;17.042;2023-01-29T04:24:50;99699.41;;;-2.37;100.00
60976;BME280;46849;48.154;17.042;2023-01-29T04:27:57;99697.69;;;-2.24;99.58
60976;BME280;46849;48.154;17.042;2023-01-29T04:30:52;99705.44;;;-2.56;97.71
60976;BME280;46849;48.154;17.042;2023-01-29T04:34:02;99702.88;;;-2.55;100.00
60976;BME280;46849;48.154;17.042;2023-01-29T04:43:25;99717.41;;;-2.35;97.59
60976;BME280;46849;48.154;17.042;2023-01-29T04:46:35;99716.56;;;-2.32;98.10
60976;BME280;46849;48.154;17.042;2023-01-29T04:49:39;99716.56;;;-2.48;98.28
60976;BME280;46849;48.154;17.042;2023-01-29T04:55:39;99723.41;;;-2.56;96.24
60976;BME280;46849;48.154;17.042;2023-01-29T04:58:29;99718.25;;;-2.66;96.75
60976;BME280;46849;48.154;17.042;2023-01-29T05:01:18;99719.97;;;-2.68;96.35
60976;BME280;46849;48.154;17.042;2023-01-29T05:04:13;99725.94;;;-2.80;95.73
60976;BME280;46849;48.154;17.042;2023-01-29T05:07:07;99726.81;;;-2.70;96.85
60976;BME280;46849;48.154;17.042;2023-01-29T05:09:53;99722.53;;;-2.62;96.42
60976;BME280;46849;48.154;17.042;2023-01-29T05:12:39;99727.63;;;-2.82;95.63
60976;BME280;46849;48.154;17.042;2023-01-29T05:15:38;99731.09;;;-2.33;96.89
60976;BME280;46849;48.154;17.042;2023-01-29T05:18:23;99719.13;;;-2.40;95.13
60976;BME280;46849;48.154;17.042;2023-01-29T05:21:08;99724.25;;;-2.75;94.45
60976;BME280;46849;48.154;17.042;2023-01-29T05:26:54;99724.25;;;-2.50;95.81
60976;BME280;46849;48.154;17.042;2023-01-29T05:29:58;99720.78;;;-2.86;94.02
60976;BME280;46849;48.154;17.042;2023-01-29T05:32:42;99731.94;;;-2.76;95.82
60976;BME280;46849;48.154;17.042;2023-01-29T05:35:27;99721.63;;;-2.95;95.96
60976;BME280;46849;48.154;17.042;2023-01-29T05:38:13;99719.97;;;-2.63;97.11
60976;BME280;46849;48.154;17.042;2023-01-29T05:40:58;99718.25;;;-2.39;96.71
60976;BME280;46849;48.154;17.042;2023-01-29T05:43:43;99721.66;;;-2.61;97.01
60976;BME280;46849;48.154;17.042;2023-01-29T05:46:28;99719.97;;;-2.54;94.90
60976;BME280;46849;48.154;17.042;2023-01-29T05:49:12;99723.38;;;-2.67;93.99
60976;BME280;46849;48.154;17.042;2023-01-29T05:51:58;99721.66;;;-2.67;93.57
60976;BME280;46849;48.154;17.042;2023-01-29T05:54:43;99721.66;;;-2.84;94.32
60976;BME280;46849;48.154;17.042;2023-01-29T05:57:27;99716.56;;;-2.48;96.02
60976;BME280;46849;48.154;17.042;2023-01-29T06:00:13;99712.28;;;-2.68;94.05
60976;BME280;46849;48.154;17.042;2023-01-29T06:02:58;99719.06;;;-2.89;93.81
60976;BME280;46849;48.154;17.042;2023-01-29T06:05:43;99716.47;;;-3.06;94.09
60976;BME280;46849;48.154;17.042;2023-01-29T06:08:28;99717.28;;;-3.19;94.15
60976;BME280;46849;48.154;17.042;2023-01-29T06:11:14;99713.91;;;-2.98;95.50
60976;BME280;46849;48.154;17.042;2023-01-29T06:14:01;99714.78;;;-2.93;95.12
60976;BME280;46849;48.154;17.042;2023-01-29T06:16:46;99700.25;;;-2.95;94.31
60976;BME280;46849;48.154;17.042;2023-01-29T06:19:30;99705.34;;;-3.13;94.10
60976;BME280;46849;48.154;17.042;2023-01-29T06:22:15;99707.91;;;-3.02;92.44
60976;BME280;46849;48.154;17.042;2023-01-29T06:25:00;99694.19;;;-3.24;90.96
60976;BME280;46849;48.154;17.042;2023-01-29T06:27:45;99693.28;;;-3.42;90.94
60976;BME280;46849;48.154;17.042;2023-01-29T06:30:29;99699.31;;;-3.23;91.33
60976;BME280;46849;48.154;17.042;2023-01-29T06:33:15;99707.00;;;-3.30;90.15
60976;BME280;46849;48.154;17.042;2023-01-29T06:36:02;99705.28;;;-3.35;91.14
60976;BME280;46849;48.154;17.042;2023-01-29T06:38:47;99710.31;;;-3.56;92.87
60976;BME280;46849;48.154;17.042;2023-01-29T06:41:32;99706.13;;;-3.39;93.58
60976;BME280;46849;48.154;17.042;2023-01-29T06:44:18;99714.69;;;-3.34;91.70
60976;BME280;46849;48.154;17.042;2023-01-29T06:47:03;99723.13;;;-3.58;90.28
60976;BME280;46849;48.154;17.042;2023-01-29T06:49:48;99728.25;;;-3.53;92.08
60976;BME280;46849;48.154;17.042;2023-01-29T06:52:33;99719.72;;;-3.49;88.74
60976;BME280;46849;48.154;17.042;2023-01-29T06:55:19;99739.44;;;-3.40;90.19
60976;BME280;46849;48.154;17.042;2023-01-29T06:58:11;99723.88;;;-3.78;89.76
60976;BME280;46849;48.154;17.042;2023-01-29T07:01:22;99712.72;;;-3.86;91.22
60976;BME280;46849;48.154;17.042;2023-01-29T07:04:07;99729.75;;;-3.93;89.75
60976;BME280;46849;48.154;17.042;2023-01-29T07:06:52;99722.97;;;-3.85;89.04
60976;BME280;46849;48.154;17.042;2023-01-29T07:09:40;99724.75;;;-3.71;90.11
60976;BME280;46849;48.154;17.042;2023-01-29T07:12:25;99712.84;;;-3.63;90.08
60976;BME280;46849;48.154;17.042;2023-01-29T07:15:10;99718.00;;;-3.60;86.98
60976;BME280;46849;48.154;17.042;2023-01-29T07:18:00;99712.88;;;-3.60;86.40
60976;BME280;46849;48.154;17.042;2023-01-29T07:20:46;99713.66;;;-3.67;86.21
60976;BME280;46849;48.154;17.042;2023-01-29T07:23:33;99716.31;;;-3.57;85.27
60976;BME280;46849;48.154;17.042;2023-01-29T07:26:18;99714.66;;;-3.46;85.20
60976;BME280;46849;48.154;17.042;2023-01-29T07:29:03;99720.75;;;-3.06;85.69
60976;BME280;46849;48.154;17.042;2023-01-29T07:31:48;99707.16;;;-2.63;83.85
60976;BME280;46849;48.154;17.042;2023-01-29T07:34:33;99725.94;;;-2.03;79.12
60976;BME280;46849;48.154;17.042;2023-01-29T07:37:18;99721.69;;;-2.11;79.05
60976;BME280;46849;48.154;17.042;2023-01-29T07:40:04;99713.97;;;-2.29;78.59
60976;BME280;46849;48.154;17.042;2023-01-29T07:43:00;99713.09;;;-2.02;81.88
60976;BME280;46849;48.154;17.042;2023-01-29T07:45:45;99723.41;;;-2.44;84.95
60976;BME280;46849;48.154;17.042;2023-01-29T07:48:31;99717.31;;;-1.73;85.76
60976;BME280;46849;48.154;17.042;2023-01-29T07:51:16;99719.03;;;-1.82;81.54
60976;BME280;46849;48.154;17.042;2023-01-29T07:54:01;99722.34;;;-1.40;85.51
60976;BME280;46849;48.154;17.042;2023-01-29T07:56:46;99722.59;;;-0.36;75.87
60976;BME280;46849;48.154;17.042;2023-01-29T07:59:31;99708.91;;;-0.41;76.29
60976;BME280;46849;48.154;17.042;2023-01-29T08:02:16;99710.53;;;0.53;73.15
60976;BME280;46849;48.154;17.042;2023-01-29T08:05:00;99719.28;;;1.07;74.57
60976;BME280;46849;48.154;17.042;2023-01-29T08:07:49;99721.69;;;1.78;69.57
60976;BME280;46849;48.154;17.042;2023-01-29T08:10:36;99731.25;;;1.71;67.30
60976;BME280;46849;48.154;17.042;2023-01-29T08:13:21;99727.09;;;1.60;68.32
60976;BME280;46849;48.154;17.042;2023-01-29T08:16:06;99724.75;;;2.46;72.95
60976;BME280;46849;48.154;17.042;2023-01-29T08:18:51;99718.00;;;1.38;63.71
60976;BME280;46849;48.154;17.042;2023-01-29T08:21:36;99709.78;;;1.67;65.81
60976;BME280;46849;48.154;17.042;2023-01-29T08:24:21;99714.00;;;1.16;61.47
60976;BME280;46849;48.154;17.042;2023-01-29T08:27:05;99711.66;;;2.54;69.31
60976;BME280;46849;48.154;17.042;2023-01-29T08:29:50;99706.34;;;2.60;65.00
60976;BME280;46849;48.154;17.042;2023-01-29T08:32:36;99696.28;;;2.46;63.86
60976;BME280;46849;48.154;17.042;2023-01-29T08:35:21;99693.72;;;2.87;58.91
60976;BME280;46849;48.154;17.042;2023-01-29T08:38:06;99707.78;;;3.15;59.93
60976;BME280;46849;48.154;17.042;2023-01-29T08:40:50;99707.28;;;2.99;63.49
60976;BME280;46849;48.154;17.042;2023-01-29T08:43:35;99707.59;;;2.40;61.28
60976;BME280;46849;48.154;17.042;2023-01-29T08:46:20;99715.88;;;2.99;60.83
60976;BME280;46849;48.154;17.042;2023-01-29T08:49:05;99708.03;;;3.78;61.67
60976;BME280;46849;48.154;17.042;2023-01-29T08:51:51;99708.91;;;4.42;57.35
60976;BME280;46849;48.154;17.042;2023-01-29T08:54:37;99713.22;;;4.74;57.01
60976;BME280;46849;48.154;17.042;2023-01-29T08:57:22;99722.91;;;4.68;55.40
60976;BME280;46849;48.154;17.042;2023-01-29T09:00:07;99729.53;;;5.09;61.65
60976;BME280;46849;48.154;17.042;2023-01-29T09:02:52;99712.13;;;4.83;57.67
60976;BME280;46849;48.154;17.042;2023-01-29T09:05:38;99719.91;;;4.83;56.19
60976;BME280;46849;48.154;17.042;2023-01-29T09:08:23;99721.81;;;5.35;59.81
60976;BME280;46849;48.154;17.042;2023-01-29T09:11:08;99724.06;;;4.88;49.07
60976;BME280;46849;48.154;17.042;2023-01-29T09:13:53;99710.19;;;5.18;54.60
60976;BME280;46849;48.154;17.042;2023-01-29T09:16:38;99715.84;;;5.31;59.93
60976;BME280;46849;48.154;17.042;2023-01-29T09:19:23;99720.13;;;4.13;76.34
60976;BME280;46849;48.154;17.042;2023-01-29T09:22:08;99722.25;;;4.62;68.33
60976;BME280;46849;48.154;17.042;2023-01-29T09:24:53;99720.03;;;5.37;53.87
60976;BME280;46849;48.154;17.042;2023-01-29T09:27:37;99719.59;;;5.22;64.88
60976;BME280;46849;48.154;17.042;2023-01-29T09:30:22;99713.41;;;5.81;59.00
60976;BME280;46849;48.154;17.042;2023-01-29T09:33:07;99729.88;;;4.97;49.81
60976;BME280;46849;48.154;17.042;2023-01-29T09:35:51;99726.00;;;5.93;63.81
60976;BME280;46849;48.154;17.042;2023-01-29T09:38:36;99741.44;;;6.25;59.49
60976;BME280;46849;48.154;17.042;2023-01-29T09:41:37;99735.41;;;6.96;58.49
60976;BME280;46849;48.154;17.042;2023-01-29T09:47:24;99729.06;;;7.48;51.86
60976;BME280;46849;48.154;17.042;2023-01-29T09:52:58;99719.22;;;6.40;58.19
60976;BME280;46849;48.154;17.042;2023-01-29T09:55:49;99726.75;;;6.48;56.49
60976;BME280;46849;48.154;17.042;2023-01-29T09:58:36;99718.03;;;7.19;48.63
60976;BME280;46849;48.154;17.042;2023-01-29T10:13:40;99716.72;;;6.85;51.09
60976;BME280;46849;48.154;17.042;2023-01-29T10:16:46;99721.78;;;6.65;59.19
60976;BME280;46849;48.154;17.042;2023-01-29T10:25:19;99717.22;;;7.39;50.29
60976;BME280;46849;48.154;17.042;2023-01-29T10:28:15;99710.41;;;8.41;44.25
60976;BME280;46849;48.154;17.042;2023-01-29T10:31:10;99717.97;;;6.50;52.71
60976;BME280;46849;48.154;17.042;2023-01-29T10:34:00;99708.19;;;6.33;45.42
60976;BME280;46849;48.154;17.042;2023-01-29T10:36:48;99720.13;;;5.05;47.38
60976;BME280;46849;48.154;17.042;2023-01-29T10:39:33;99714.72;;;4.83;49.00
60976;BME280;46849;48.154;17.042;2023-01-29T10:57:57;99701.94;;;3.79;50.51
60976;BME280;46849;48.154;17.042;2023-01-29T11:00:44;99701.31;;;2.95;52.27
60976;BME280;46849;48.154;17.042;2023-01-29T11:03:30;99695.66;;;3.53;51.60
60976;BME280;46849;48.154;17.042;2023-01-29T11:06:22;99686.72;;;2.05;56.16
60976;BME280;46849;48.154;17.042;2023-01-29T11:09:29;99693.53;;;2.54;57.51
60976;BME280;46849;48.154;17.042;2023-01-29T11:12:22;99680.56;;;4.04;59.39
60976;BME280;46849;48.154;17.042;2023-01-29T11:18:07;99674.41;;;2.63;72.46
60976;BME280;46849;48.154;17.042;2023-01-29T11:21:16;99673.72;;;5.21;79.31
60976;BME280;46849;48.154;17.042;2023-01-29T11:24:12;99672.63;;;3.42;69.15
60976;BME280;46849;48.154;17.042;2023-01-29T11:27:00;99668.56;;;5.74;82.69
60976;BME280;46849;48.154;17.042;2023-01-29T11:29:47;99675.72;;;3.90;61.02
60976;BME280;46849;48.154;17.042;2023-01-29T11:32:33;99666.19;;;4.24;75.40
60976;BME280;46849;48.154;17.042;2023-01-29T11:35:21;99659.50;;;5.86;80.85
60976;BME280;46849;48.154;17.042;2023-01-29T11:38:33;99645.41;;;6.17;57.15
60976;BME280;46849;48.154;17.042;2023-01-29T11:41:18;99654.69;;;6.72;58.72
60976;BME280;46849;48.154;17.042;2023-01-29T11:47:21;99631.34;;;5.72;52.83
60976;BME280;46849;48.154;17.042;2023-01-29T11:50:16;99636.97;;;4.48;64.75
60976;BME280;46849;48.154;17.042;2023-01-29T11:53:03;99627.22;;;5.66;58.06
60976;BME280;46849;48.154;17.042;2023-01-29T11:55:51;99628.19;;;5.89;55.59
60976;BME280;46849;48.154;17.042;2023-01-29T11:58:36;99622.44;;;6.04;56.15
60976;BME280;46849;48.154;17.042;2023-01-29T12:01:32;99601.03;;;3.72;53.55
60976;BME280;46849;48.154;17.042;2023-01-29T12:04:22;99600.00;;;3.77;54.21
60976;BME280;46849;48.154;17.042;2023-01-29T12:07:16;99591.88;;;3.58;54.56
60976;BME280;46849;48.154;17.042;2023-01-29T12:10:01;99578.50;;;5.20;52.88
60976;BME280;46849;48.154;17.042;2023-01-29T12:12:47;99580.25;;;6.20;46.93
60976;BME280;46849;48.154;17.042;2023-01-29T12:15:33;99570.63;;;6.46;50.07
60976;BME280;46849;48.154;17.042;2023-01-29T12:18:43;99558.94;;;4.54;47.84
60976;BME280;46849;48.154;17.042;2023-01-29T12:21:34;99575.66;;;2.42;55.58
60976;BME280;46849;48.154;17.042;2023-01-29T12:24:32;99565.00;;;2.56;54.24
60976;BME280;46849;48.154;17.042;2023-01-29T12:30:35;99567.78;;;5.04;50.27
60976;BME280;46849;48.154;17.042;2023-01-29T12:36:58;99564.41;;;4.16;53.79
60976;BME280;46849;48.154;17.042;2023-01-29T12:39:45;99564.34;;;4.46;52.95
60976;BME280;46849;48.154;17.042;2023-01-29T12:42:32;99557.84;;;4.02;63.79
60976;BME280;46849;48.154;17.042;2023-01-29T12:45:18;99562.88;;;6.21;60.21
60976;BME280;46849;48.154;17.042;2023-01-29T12:48:09;99555.47;;;5.86;49.97
60976;BME280;46849;48.154;17.042;2023-01-29T12:51:07;99561.84;;;3.17;55.42
60976;BME280;46849;48.154;17.042;2023-01-29T12:54:09;99546.44;;;4.10;53.48
60976;BME280;46849;48.154;17.042;2023-01-29T12:57:01;99542.78;;;4.73;70.13
60976;BME280;46849;48.154;17.042;2023-01-29T13:00:08;99540.19;;;3.20;55.35
60976;BME280;46849;48.154;17.042;2023-01-29T13:03:16;99535.75;;;3.89;58.13
60976;BME280;46849;48.154;17.042;2023-01-29T13:06:16;99523.28;;;11.69;74.65
60976;BME280;46849;48.154;17.042;2023-01-29T13:09:05;99526.25;;;8.71;44.68
60976;BME280;46849;48.154;17.042;2023-01-29T13:12:01;99526.28;;;6.25;46.10
60976;BME280;46849;48.154;17.042;2023-01-29T13:14:53;99528.22;;;4.40;50.84
60976;BME280;46849;48.154;17.042;2023-01-29T13:17:43;99521.38;;;3.47;57.67
60976;BME280;46849;48.154;17.042;2023-01-29T13:20:31;99532.34;;;2.12;58.60
60976;BME280;46849;48.154;17.042;2023-01-29T13:23:21;99531.94;;;1.88;59.40
60976;BME280;46849;48.154;17.042;2023-01-29T13:26:08;99522.63;;;0.86;62.66
60976;BME280;46849;48.154;17.042;2023-01-29T13:28:52;99532.34;;;0.70;75.94
60976;BME280;46849;48.154;17.042;2023-01-29T13:31:38;99518.69;;;2.05;60.57
60976;BME280;46849;48.154;17.042;2023-01-29T13:37:23;99517.06;;;1.08;63.49
60976;BME280;46849;48.154;17.042;2023-01-29T13:40:20;99523.75;;;1.67;79.29
60976;BME280;46849;48.154;17.042;2023-01-29T13:43:18;99523.97;;;2.01;61.56
60976;BME280;46849;48.154;17.042;2023-01-29T13:46:11;99524.41;;;3.29;78.86
60976;BME280;46849;48.154;17.042;2023-01-29T13:48:57;99505.91;;;3.10;59.78
60976;BME280;46849;48.154;17.042;2023-01-29T13:51:48;99520.31;;;2.49;63.88
60976;BME280;46849;48.154;17.042;2023-01-29T13:54:35;99511.69;;;2.09;59.66
60976;BME280;46849;48.154;17.042;2023-01-29T14:05:58;99501.00;;;3.96;75.83
60976;BME280;46849;48.154;17.042;2023-01-29T14:08:44;99508.06;;;3.91;65.27
60976;BME280;46849;48.154;17.042;2023-01-29T14:11:34;99512.97;;;1.91;57.72
60976;BME280;46849;48.154;17.042;2023-01-29T14:17:39;99505.47;;;2.57;73.89
60976;BME280;46849;48.154;17.042;2023-01-29T14:20:49;99514.28;;;3.85;63.79
60976;BME280;46849;48.154;17.042;2023-01-29T14:23:43;99507.47;;;2.06;60.65
60976;BME280;46849;48.154;17.042;2023-01-29T14:26:40;99522.16;;;2.44;58.83
60976;BME280;46849;48.154;17.042;2023-01-29T14:29:30;99516.41;;;2.69;61.79
60976;BME280;46849;48.154;17.042;2023-01-29T14:32:23;99518.41;;;1.77;60.66
60976;BME280;46849;48.154;17.042;2023-01-29T14:35:28;99521.88;;;0.79;63.37
60976;BME280;46849;48.154;17.042;2023-01-29T14:38:16;99523.69;;;7.34;100.00
60976;BME280;46849;48.154;17.042;2023-01-29T14:41:11;99522.41;;;3.06;62.02
60976;BME280;46849;48.154;17.042;2023-01-29T14:53:24;99516.09;;;-0.72;67.84
60976;BME280;46849;48.154;17.042;2023-01-29T14:56:16;99520.66;;;-1.04;69.74
60976;BME280;46849;48.154;17.042;2023-01-29T15:02:17;99526.09;;;-0.44;67.91
60976;BME280;46849;48.154;17.042;2023-01-29T15:05:07;99518.56;;;-1.65;70.46
60976;BME280;46849;48.154;17.042;2023-01-29T15:07:57;99528.16;;;-2.03;73.37
60976;BME280;46849;48.154;17.042;2023-01-29T15:10:44;99521.91;;;-1.55;74.33
60976;BME280;46849;48.154;17.042;2023-01-29T15:13:38;99529.22;;;-1.01;72.00
60976;BME280;46849;48.154;17.042;2023-01-29T15:16:34;99528.94;;;-1.86;71.09
60976;BME280;46849;48.154;17.042;2023-01-29T15:19:33;99523.06;;;-2.08;74.41
60976;BME280;46849;48.154;17.042;2023-01-29T15:22:20;99525.63;;;-2.08;73.32
60976;BME280;46849;48.154;17.042;2023-01-29T15:25:14;99520.66;;;-2.52;75.91
60976;BME280;46849;48.154;17.042;2023-01-29T15:28:02;99524.91;;;-2.49;75.17
60976;BME280;46849;48.154;17.042;2023-01-29T15:30:54;99524.94;;;-2.63;76.05
60976;BME280;46849;48.154;17.042;2023-01-29T15:33:42;99520.56;;;-2.30;76.06
60976;BME280;46849;48.154;17.042;2023-01-29T15:36:29;99521.28;;;-1.95;74.32
60976;BME280;46849;48.154;17.042;2023-01-29T15:42:13;99514.63;;;-2.44;77.88
60976;BME280;46849;48.154;17.042;2023-01-29T15:45:32;99514.16;;;-1.49;72.42
60976;BME280;46849;48.154;17.042;2023-01-29T15:48:19;99518.06;;;-2.50;76.36
60976;BME280;46849;48.154;17.042;2023-01-29T15:51:12;99527.56;;;-2.93;77.53
60976;BME280;46849;48.154;17.042;2023-01-29T15:54:11;99534.41;;;-3.47;80.15
60976;BME280;46849;48.154;17.042;2023-01-29T15:56:56;99528.41;;;-3.11;79.68
60976;BME280;46849;48.154;17.042;2023-01-29T15:59:44;99534.41;;;-3.01;78.98
60976;BME280;46849;48.154;17.042;2023-01-29T16:05:16;99531.28;;;-1.50;100.00
60976;BME280;46849;48.154;17.042;2023-01-29T16:08:01;99519.75;;;-2.44;80.69
60976;BME280;46849;48.154;17.042;2023-01-29T16:10:47;99536.00;;;-2.39;78.66
60976;BME280;46849;48.154;17.042;2023-01-29T16:13:36;99537.72;;;-2.44;77.70
60976;BME280;46849;48.154;17.042;2023-01-29T16:16:24;99542.09;;;-2.76;78.26
60976;BME280;46849;48.154;17.042;2023-01-29T16:19:38;99540.34;;;-2.65;77.30
60976;BME280;46849;48.154;17.042;2023-01-29T16:22:24;99542.91;;;-2.60;77.19
60976;BME280;46849;48.154;17.042;2023-01-29T16:25:13;99547.22;;;-2.76;78.91
60976;BME280;46849;48.154;17.042;2023-01-29T16:28:02;99547.19;;;-2.70;77.20
60976;BME280;46849;48.154;17.042;2023-01-29T16:30:54;99550.56;;;-2.46;77.21
60976;BME280;46849;48.154;17.042;2023-01-29T16:33:42;99543.81;;;-2.94;77.28
60976;BME280;46849;48.154;17.042;2023-01-29T16:36:28;99541.22;;;-3.41;80.07
60976;BME280;46849;48.154;17.042;2023-01-29T16:39:18;99546.38;;;-1.04;94.39
60976;BME280;46849;48.154;17.042;2023-01-29T16:45:24;99551.44;;;-2.49;87.56
60976;BME280;46849;48.154;17.042;2023-01-29T16:48:26;99550.59;;;-2.54;87.78
60976;BME280;46849;48.154;17.042;2023-01-29T16:51:22;99558.31;;;-2.82;82.63
60976;BME280;46849;48.154;17.042;2023-01-29T16:54:12;99559.19;;;-3.08;82.82
60976;BME280;46849;48.154;17.042;2023-01-29T16:57:02;99558.31;;;-3.24;85.04